createdAt,value
2023-03-11T00:00:56.335Z,9.32
2023-03-11T00:03:25.895Z,9.25
2023-03-11T00:05:54.143Z,9.30
2023-03-11T00:08:25.899Z,9.98
2023-03-11T00:11:00.605Z,9.82
2023-03-11T00:13:33.357Z,9.07
2023-03-11T00:16:01.922Z,7.80
2023-03-11T00:18:33.062Z,10.18
2023-03-11T00:21:10.271Z,9.73
2023-03-11T00:23:42.593Z,9.93
2023-03-11T00:26:09.798Z,9.70
2023-03-11T00:28:38.486Z,10.27
2023-03-11T00:31:07.556Z,9.73
2023-03-11T00:33:36.789Z,10.43
2023-03-11T00:36:04.065Z,9.48
2023-03-11T00:38:30.984Z,10.80
2023-03-11T00:40:57.637Z,9.02
2023-03-11T00:43:24.398Z,10.93
2023-03-11T00:45:51.337Z,10.63
2023-03-11T00:48:18.310Z,7.60
2023-03-11T00:50:50.320Z,10.25
2023-03-11T00:53:17.414Z,10.88
2023-03-11T00:55:44.204Z,8.88
2023-03-11T00:58:11.424Z,10.63
2023-03-11T01:00:41.880Z,10.23
2023-03-11T01:03:13.712Z,11.00
2023-03-11T01:05:41.042Z,10.07
2023-03-11T01:08:11.393Z,9.95
2023-03-11T01:10:38.378Z,10.02
2023-03-11T01:13:05.621Z,6.53
2023-03-11T01:15:37.279Z,8.85
2023-03-11T01:18:06.137Z,8.90
2023-03-11T01:20:36.758Z,7.70
2023-03-11T01:23:04.223Z,8.38
2023-03-11T01:25:30.846Z,7.75
2023-03-11T01:27:57.597Z,6.43
2023-03-11T01:30:25.533Z,6.82
2023-03-11T01:32:56.092Z,5.25
2023-03-11T01:35:24.957Z,6.15
2023-03-11T01:37:52.590Z,6.53
2023-03-11T01:40:36.030Z,6.03
2023-03-11T01:43:05.156Z,4.68
2023-03-11T01:45:37.221Z,4.90
2023-03-11T01:48:03.855Z,3.80
2023-03-11T01:50:41.443Z,3.50
2023-03-11T01:53:08.436Z,3.30
2023-03-11T01:55:35.266Z,3.65
2023-03-11T01:58:06.499Z,3.47
2023-03-11T02:00:33.259Z,2.40
2023-03-11T02:03:06.318Z,2.15
2023-03-11T02:05:33.218Z,1.80
2023-03-11T02:08:03.124Z,2.05
2023-03-11T02:10:31.673Z,1.73
2023-03-11T02:12:58.704Z,2.05
2023-03-11T02:15:26.198Z,1.70
2023-03-11T02:17:53.783Z,1.58
2023-03-11T02:20:42.592Z,1.50
2023-03-11T02:23:12.735Z,1.48
2023-03-11T02:26:24.193Z,1.58
2023-03-11T02:28:53.269Z,1.55
2023-03-11T02:31:21.878Z,1.60
2023-03-11T02:33:51.034Z,1.70
2023-03-11T02:36:38.344Z,1.48
2023-03-11T02:39:06.753Z,1.80
2023-03-11T02:41:36.807Z,1.75
2023-03-11T02:44:07.142Z,1.90
2023-03-11T02:46:35.541Z,1.50
2023-03-11T02:49:03.001Z,1.70
2023-03-11T02:51:29.936Z,2.10
2023-03-11T02:54:01.587Z,2.40
2023-03-11T02:56:28.730Z,2.13
2023-03-11T02:58:55.646Z,2.30
2023-03-11T03:01:22.849Z,2.90
2023-03-11T03:03:49.631Z,2.42
2023-03-11T03:06:16.387Z,2.58
2023-03-11T03:08:43.138Z,2.22
2023-03-11T03:11:09.713Z,2.13
2023-03-11T03:13:36.413Z,2.38
2023-03-11T03:16:03.632Z,3.15
2023-03-11T03:18:32.780Z,2.33
2023-03-11T03:20:59.689Z,2.20
2023-03-11T03:23:26.284Z,3.63
2023-03-11T03:25:52.735Z,2.75
2023-03-11T03:28:19.439Z,2.65
2023-03-11T03:30:46.152Z,3.05
2023-03-11T03:33:12.839Z,2.45
2023-03-11T03:35:44.681Z,3.03
2023-03-11T03:38:11.350Z,3.42
2023-03-11T03:40:38.018Z,3.17
2023-03-11T03:43:07.374Z,3.50
2023-03-11T03:45:33.899Z,3.55
2023-03-11T03:48:00.715Z,3.50
2023-03-11T03:50:28.218Z,3.70
2023-03-11T03:52:55.153Z,3.67
2023-03-11T03:55:21.955Z,3.05
2023-03-11T03:57:48.444Z,3.13
2023-03-11T04:00:15.760Z,3.85
2023-03-11T04:02:45.198Z,3.85
2023-03-11T04:05:11.824Z,3.25
2023-03-11T04:07:38.511Z,3.65
2023-03-11T04:10:05.788Z,3.38
2023-03-11T04:12:32.426Z,2.60
2023-03-11T04:14:59.115Z,3.75
2023-03-11T04:17:25.685Z,3.80
2023-03-11T04:19:52.297Z,3.08
2023-03-11T04:22:18.800Z,3.53
2023-03-11T04:24:45.425Z,3.53
2023-03-11T04:27:12.077Z,2.78
2023-03-11T04:29:38.790Z,3.13
2023-03-11T04:32:05.582Z,2.97
2023-03-11T04:34:32.127Z,3.05
2023-03-11T04:36:59.405Z,2.92
2023-03-11T04:39:26.323Z,2.58
2023-03-11T04:41:52.985Z,2.60
2023-03-11T04:44:19.785Z,2.40
2023-03-11T04:46:46.392Z,2.67
2023-03-11T04:49:13.021Z,2.28
2023-03-11T04:51:39.763Z,2.33
2023-03-11T04:54:07.515Z,2.03
2023-03-11T04:56:41.519Z,2.40
2023-03-11T04:59:08.257Z,2.10
2023-03-11T05:01:34.958Z,2.47
2023-03-11T05:04:01.763Z,2.25
2023-03-11T05:06:30.434Z,2.25
2023-03-11T05:08:57.563Z,2.60
2023-03-11T05:11:24.186Z,2.50
2023-03-11T05:13:54.050Z,2.10
2023-03-11T05:16:25.146Z,2.15
2023-03-11T05:18:52.131Z,2.08
2023-03-11T05:21:18.952Z,2.10
2023-03-11T05:23:48.082Z,1.98
2023-03-11T05:26:14.942Z,2.53
2023-03-11T05:28:42.154Z,2.22
2023-03-11T05:31:12.494Z,2.30
2023-03-11T05:33:44.137Z,2.47
2023-03-11T05:36:10.892Z,2.83
2023-03-11T05:38:37.612Z,2.08
2023-03-11T05:41:04.738Z,2.47
2023-03-11T05:43:33.875Z,2.70
2023-03-11T05:46:00.401Z,2.90
2023-03-11T05:48:27.467Z,3.08
2023-03-11T05:50:54.023Z,2.58
2023-03-11T05:53:20.551Z,2.65
2023-03-11T05:55:56.324Z,2.67
2023-03-11T05:58:22.973Z,2.90
2023-03-11T06:00:51.455Z,2.53
2023-03-11T06:03:18.157Z,3.05
2023-03-11T06:05:54.203Z,3.00
2023-03-11T06:08:22.286Z,3.30
2023-03-11T06:10:51.244Z,3.88
2023-03-11T06:13:17.780Z,3.90
2023-03-11T06:15:49.036Z,3.70
2023-03-11T06:18:15.909Z,3.33
2023-03-11T06:20:42.836Z,3.72
2023-03-11T06:23:09.682Z,3.90
2023-03-11T06:25:37.684Z,3.30
2023-03-11T06:28:10.224Z,2.45
2023-03-11T06:30:39.730Z,3.58
2023-03-11T06:33:10.963Z,3.90
2023-03-11T06:35:37.680Z,3.28
2023-03-11T06:38:04.197Z,4.00
2023-03-11T06:40:31.404Z,4.00
2023-03-11T06:42:58.004Z,4.45
2023-03-11T06:45:27.044Z,3.95
2023-03-11T06:48:04.526Z,3.75
2023-03-11T06:50:31.993Z,3.90
2023-03-11T06:53:01.804Z,4.20
2023-03-11T06:55:32.534Z,4.15
2023-03-11T06:57:59.270Z,4.10
2023-03-11T07:00:26.308Z,3.47
2023-03-11T07:02:53.172Z,3.38
2023-03-11T07:05:20.390Z,3.55
2023-03-11T07:07:50.430Z,3.70
2023-03-11T07:10:20.350Z,3.90
2023-03-11T07:12:46.877Z,4.05
2023-03-11T07:15:14.171Z,4.18
2023-03-11T07:17:41.036Z,3.88
2023-03-11T07:20:08.530Z,4.13
2023-03-11T07:22:35.226Z,3.10
2023-03-11T07:25:05.092Z,3.60
2023-03-11T07:27:33.001Z,3.22
2023-03-11T07:30:08.457Z,3.47
2023-03-11T07:32:35.150Z,3.70
2023-03-11T07:35:02.001Z,3.72
2023-03-11T07:37:28.647Z,3.92
2023-03-11T07:39:55.173Z,4.47
2023-03-11T07:42:22.293Z,4.32
2023-03-11T07:44:52.098Z,3.95
2023-03-11T07:47:18.912Z,4.18
2023-03-11T07:49:45.708Z,4.05
2023-03-11T07:52:12.325Z,4.00
2023-03-11T07:54:38.813Z,4.55
2023-03-11T07:57:07.541Z,4.20
2023-03-11T07:59:34.037Z,3.88
2023-03-11T08:02:02.778Z,7.68
2023-03-11T08:04:31.922Z,4.20
2023-03-11T08:06:58.577Z,3.53
2023-03-11T08:09:25.190Z,3.50
2023-03-11T08:11:52.165Z,3.65
2023-03-11T08:14:19.393Z,3.88
2023-03-11T08:16:46.184Z,4.60
2023-03-11T08:19:13.599Z,4.20
2023-03-11T08:21:41.929Z,4.03
2023-03-11T08:24:12.123Z,3.40
2023-03-11T08:26:39.156Z,3.85
2023-03-11T08:29:08.718Z,3.50
2023-03-11T08:31:41.253Z,4.63
2023-03-11T08:34:14.538Z,3.63
2023-03-11T08:36:41.764Z,3.88
2023-03-11T08:39:11.075Z,4.30
2023-03-11T08:41:37.855Z,3.65
2023-03-11T08:44:04.509Z,3.80
2023-03-11T08:46:37.193Z,3.70
2023-03-11T08:49:04.512Z,5.20
2023-03-11T08:51:34.400Z,4.28
2023-03-11T08:54:02.363Z,3.70
2023-03-11T08:56:29.724Z,3.92
2023-03-11T08:58:57.778Z,3.60
2023-03-11T09:01:24.427Z,3.50
2023-03-11T09:03:51.378Z,3.42
2023-03-11T09:06:21.091Z,3.30
2023-03-11T09:08:50.995Z,3.53
2023-03-11T09:11:19.028Z,3.30
2023-03-11T09:13:48.511Z,3.90
2023-03-11T09:16:23.042Z,4.15
2023-03-11T09:18:49.938Z,4.60
2023-03-11T09:21:19.836Z,3.83
2023-03-11T09:23:49.619Z,3.85
2023-03-11T09:26:16.480Z,3.65
2023-03-11T09:28:43.809Z,3.50
2023-03-11T09:31:11.059Z,3.60
2023-03-11T09:33:42.263Z,4.35
2023-03-11T09:36:17.509Z,4.65
2023-03-11T09:38:45.532Z,4.43
2023-03-11T09:41:18.302Z,4.50
2023-03-11T09:44:09.357Z,5.70
2023-03-11T09:47:04.109Z,4.82
2023-03-11T09:50:04.892Z,3.75
2023-03-11T09:52:44.364Z,3.75
2023-03-11T09:55:38.435Z,3.95
2023-03-11T09:58:13.028Z,4.07
2023-03-11T10:00:40.784Z,3.65
2023-03-11T10:03:17.657Z,3.58
2023-03-11T10:05:47.514Z,3.67
2023-03-11T10:08:44.338Z,3.65
2023-03-11T10:11:32.262Z,4.10
2023-03-11T10:14:18.773Z,3.78
2023-03-11T10:17:02.212Z,4.10
2023-03-11T10:20:01.357Z,3.80
2023-03-11T10:22:43.352Z,4.07
2023-03-11T10:25:15.712Z,4.22
2023-03-11T10:27:51.915Z,4.25
2023-03-11T10:30:39.806Z,4.15
2023-03-11T10:33:31.986Z,4.22
2023-03-11T10:36:04.213Z,4.80
2023-03-11T10:38:39.603Z,4.68
2023-03-11T10:41:22.888Z,4.25
2023-03-11T10:44:00.514Z,4.70
2023-03-11T10:46:31.280Z,4.03
2023-03-11T10:48:58.118Z,3.72
2023-03-11T10:51:35.603Z,4.85
2023-03-11T10:54:05.869Z,5.05
2023-03-11T10:56:41.594Z,4.45
2023-03-11T10:59:48.880Z,4.93
2023-03-11T11:02:26.357Z,4.65
2023-03-11T11:05:16.880Z,4.93
2023-03-11T11:08:02.299Z,4.97
2023-03-11T11:10:29.689Z,5.25
2023-03-11T11:12:57.917Z,5.38
2023-03-11T11:15:40.613Z,5.78
2023-03-11T11:18:59.589Z,5.18
2023-03-11T11:21:40.970Z,5.47
2023-03-11T11:24:24.820Z,6.10
2023-03-11T11:27:16.699Z,5.95
2023-03-11T11:29:44.382Z,6.20
2023-03-11T11:32:14.065Z,5.50
2023-03-11T11:34:41.417Z,5.97
2023-03-11T11:37:16.007Z,5.78
2023-03-11T11:40:15.038Z,6.25
2023-03-11T11:47:17.791Z,5.70
2023-03-11T12:12:14.653Z,5.25
2023-03-11T12:17:45.058Z,5.22
2023-03-11T12:20:14.271Z,5.40
2023-03-11T12:23:11.867Z,5.45
2023-03-11T12:26:06.051Z,6.15
2023-03-11T12:28:42.096Z,5.75
2023-03-11T12:31:11.120Z,5.13
2023-03-11T12:33:42.173Z,5.53
2023-03-11T12:36:23.649Z,5.63
2023-03-11T12:38:52.144Z,5.85
2023-03-11T12:41:29.654Z,5.30
2023-03-11T12:44:02.297Z,5.10
2023-03-11T12:47:07.978Z,5.03
2023-03-11T12:49:47.634Z,6.03
2023-03-11T12:52:14.146Z,6.13
2023-03-11T12:54:42.513Z,5.53
2023-03-11T12:57:21.221Z,5.28
2023-03-11T13:00:25.733Z,5.55
2023-03-11T13:03:25.460Z,4.63
2023-03-11T13:06:03.570Z,5.22
2023-03-11T13:08:51.428Z,5.70
2023-03-11T13:11:35.543Z,4.93
2023-03-11T13:14:26.679Z,4.70
2023-03-11T13:16:55.058Z,5.07
2023-03-11T13:19:27.328Z,6.05
2023-03-11T13:21:55.581Z,6.30
2023-03-11T13:24:22.454Z,5.35
2023-03-11T13:27:07.454Z,6.00
2023-03-11T13:29:54.273Z,5.50
2023-03-11T13:32:47.157Z,5.50
2023-03-11T13:35:36.806Z,5.43
2023-03-11T13:38:16.007Z,5.20
2023-03-11T13:40:46.084Z,4.38
2023-03-11T13:43:19.038Z,4.20
2023-03-11T13:45:52.671Z,5.15
2023-03-11T13:48:42.137Z,4.80
2023-03-11T13:51:17.252Z,4.00
2023-03-11T13:53:56.482Z,3.72
2023-03-11T13:56:31.750Z,3.30
2023-03-11T13:59:17.517Z,4.35
2023-03-11T14:01:56.668Z,3.08
2023-03-11T14:04:32.063Z,4.43
2023-03-11T14:06:59.726Z,3.70
2023-03-11T14:09:28.668Z,3.55
2023-03-11T14:12:03.573Z,3.53
2023-03-11T14:14:53.167Z,3.92
2023-03-11T14:17:21.925Z,3.58
2023-03-11T14:20:23.727Z,3.78
2023-03-11T14:22:53.297Z,3.25
2023-03-11T14:25:26.223Z,3.80
2023-03-11T14:28:01.856Z,3.72
2023-03-11T14:30:31.756Z,3.53
2023-03-11T14:33:04.445Z,3.22
2023-03-11T14:35:33.912Z,2.65
2023-03-11T14:38:20.291Z,3.25
2023-03-11T14:40:54.090Z,3.80
2023-03-11T14:43:22.067Z,3.72
2023-03-11T14:45:51.437Z,3.38
2023-03-11T14:48:37.187Z,3.47
2023-03-11T14:51:06.047Z,3.28
2023-03-11T14:53:48.196Z,3.40
2023-03-11T14:56:21.674Z,2.95
2023-03-11T14:59:18.649Z,2.85
2023-03-11T15:01:48.237Z,2.17
2023-03-11T15:04:27.849Z,2.40
2023-03-11T15:06:55.362Z,2.80
2023-03-11T15:09:23.760Z,2.30
2023-03-11T15:11:56.137Z,2.22
2023-03-11T15:14:35.228Z,2.40
2023-03-11T15:17:38.405Z,2.33
2023-03-11T15:20:23.633Z,2.50
2023-03-11T15:22:58.266Z,2.00
2023-03-11T15:25:27.034Z,2.40
2023-03-11T15:27:55.572Z,2.30
2023-03-11T15:30:29.206Z,2.70
2023-03-11T15:32:57.341Z,2.30
2023-03-11T15:35:30.608Z,2.30
2023-03-11T15:38:21.614Z,2.35
2023-03-11T15:40:57.551Z,2.40
2023-03-11T15:43:41.141Z,2.20
2023-03-11T15:46:11.194Z,2.10
2023-03-11T15:48:38.016Z,2.00
2023-03-11T15:51:04.622Z,2.38
2023-03-11T15:53:31.225Z,2.22
2023-03-11T15:56:07.270Z,2.10
2023-03-11T15:58:36.264Z,2.00
2023-03-11T16:01:03.247Z,2.22
2023-03-11T16:03:32.221Z,2.85
2023-03-11T16:05:59.102Z,2.30
2023-03-11T16:08:25.636Z,2.15
2023-03-11T16:10:54.870Z,2.45
2023-03-11T16:13:21.637Z,2.63
2023-03-11T16:15:48.813Z,2.40
2023-03-11T16:18:15.866Z,2.30
2023-03-11T16:20:53.128Z,2.17
2023-03-11T16:23:25.411Z,2.03
2023-03-11T16:25:55.718Z,1.80
2023-03-11T16:28:22.196Z,2.42
2023-03-11T16:30:51.354Z,2.53
2023-03-11T16:33:17.914Z,2.42
2023-03-11T16:35:44.665Z,2.20
2023-03-11T16:38:11.452Z,2.42
2023-03-11T16:40:37.976Z,2.53
2023-03-11T16:43:16.307Z,3.35
2023-03-11T16:48:09.896Z,1.95
2023-03-11T16:50:37.707Z,2.45
2023-03-11T16:53:05.009Z,2.65
2023-03-11T16:55:31.710Z,2.20
2023-03-11T16:57:59.292Z,4.28
2023-03-11T17:00:26.438Z,2.45
2023-03-11T17:02:52.902Z,3.47
2023-03-11T17:05:20.447Z,3.50
2023-03-11T17:07:47.873Z,3.42
2023-03-11T17:10:14.655Z,2.40
2023-03-11T17:12:41.256Z,2.72
2023-03-11T17:15:08.573Z,2.60
2023-03-11T17:17:35.422Z,2.70
2023-03-11T17:20:02.016Z,2.72
2023-03-11T17:22:28.552Z,2.80
2023-03-11T17:24:55.334Z,2.13
2023-03-11T17:27:21.832Z,2.13
2023-03-11T17:29:48.418Z,2.83
2023-03-11T17:32:18.047Z,2.20
2023-03-11T17:34:45.565Z,3.10
2023-03-11T17:37:12.477Z,4.00
2023-03-11T17:39:39.294Z,3.97
2023-03-11T17:42:05.927Z,3.88
2023-03-11T17:44:51.103Z,3.80
2023-03-11T17:47:19.928Z,3.83
2023-03-11T17:49:47.020Z,2.90
2023-03-11T17:52:13.575Z,3.05
2023-03-11T17:54:40.045Z,3.33
2023-03-11T17:57:07.128Z,4.15
2023-03-11T17:59:35.661Z,3.55
2023-03-11T18:02:02.473Z,3.35
2023-03-11T18:04:29.484Z,2.95
2023-03-11T18:06:59.149Z,3.33
2023-03-11T18:09:25.790Z,3.83
2023-03-11T18:11:52.584Z,3.97
2023-03-11T18:14:20.251Z,2.97
2023-03-11T18:16:48.147Z,3.00
2023-03-11T18:19:14.712Z,3.20
2023-03-11T18:21:41.248Z,3.10
2023-03-11T18:24:07.756Z,2.92
2023-03-11T18:26:34.823Z,2.35
2023-03-11T18:29:02.528Z,2.55
2023-03-11T18:31:30.554Z,2.90
2023-03-11T18:34:00.369Z,2.42
2023-03-11T18:36:29.207Z,2.55
2023-03-11T18:38:57.277Z,2.75
2023-03-11T18:41:25.031Z,2.40
2023-03-11T18:43:53.201Z,2.40
2023-03-11T18:46:20.117Z,2.47
2023-03-11T18:48:50.440Z,2.60
2023-03-11T18:51:19.582Z,2.55
2023-03-11T18:53:46.296Z,3.20
2023-03-11T18:56:15.191Z,3.05
2023-03-11T18:58:42.052Z,2.70
2023-03-11T19:01:15.780Z,2.70
2023-03-11T19:03:45.186Z,3.05
2023-03-11T19:06:13.635Z,2.78
2023-03-11T19:08:40.479Z,2.90
2023-03-11T19:11:12.724Z,2.75
2023-03-11T19:13:47.068Z,2.47
2023-03-11T19:16:16.450Z,2.60
2023-03-11T19:18:44.329Z,2.85
2023-03-11T19:21:12.716Z,2.28
2023-03-11T19:23:39.676Z,2.83
2023-03-11T19:26:06.443Z,2.17
2023-03-11T19:28:32.974Z,2.78
2023-03-11T19:30:59.808Z,3.20
2023-03-11T19:33:26.757Z,2.75
2023-03-11T19:35:54.984Z,2.42
2023-03-11T19:38:22.716Z,2.60
2023-03-11T19:41:02.828Z,2.45
2023-03-11T19:43:35.904Z,2.72
2023-03-11T19:46:03.885Z,2.67
2023-03-11T19:48:30.747Z,2.17
2023-03-11T19:50:58.615Z,2.00
2023-03-11T19:53:26.855Z,2.40
2023-03-11T19:55:55.636Z,1.92
2023-03-11T19:58:29.423Z,2.92
2023-03-11T20:00:58.500Z,1.75
2023-03-11T20:03:25.881Z,2.17
2023-03-11T20:05:56.791Z,1.83
2023-03-11T20:08:24.803Z,1.33
2023-03-11T20:10:52.607Z,2.05
2023-03-11T20:13:21.324Z,1.92
2023-03-11T20:15:48.043Z,2.05
2023-03-11T20:18:14.842Z,1.92
2023-03-11T20:20:43.889Z,1.98
2023-03-11T20:23:12.562Z,2.20
2023-03-11T20:25:40.083Z,2.40
2023-03-11T20:28:06.870Z,1.60
2023-03-11T20:30:35.778Z,1.92
2023-03-11T20:33:05.208Z,2.45
2023-03-11T20:35:32.345Z,1.95
2023-03-11T20:37:59.442Z,2.20
2023-03-11T20:40:29.644Z,2.20
2023-03-11T20:42:56.224Z,2.83
2023-03-11T20:45:23.891Z,1.98
2023-03-11T20:47:53.845Z,2.88
2023-03-11T20:50:21.382Z,2.53
2023-03-11T20:52:49.540Z,2.53
2023-03-11T20:55:18.982Z,3.58
2023-03-11T20:57:47.110Z,2.70
2023-03-11T21:00:14.136Z,1.52
2023-03-11T21:02:43.071Z,2.33
2023-03-11T21:05:15.168Z,1.83
2023-03-11T21:07:41.839Z,1.70
2023-03-11T21:10:17.706Z,1.70
2023-03-11T21:12:45.844Z,1.73
2023-03-11T21:15:12.652Z,1.60
2023-03-11T21:17:39.231Z,1.60
2023-03-11T21:20:06.430Z,2.22
2023-03-11T21:22:34.325Z,1.80
2023-03-11T21:25:01.114Z,1.98
2023-03-11T21:27:28.131Z,2.10
2023-03-11T21:29:55.762Z,1.58
2023-03-11T21:32:23.351Z,1.73
2023-03-11T21:34:49.983Z,1.98
2023-03-11T21:37:16.944Z,1.70
2023-03-11T21:39:45.607Z,1.80
2023-03-11T21:42:13.536Z,2.08
2023-03-11T21:44:41.778Z,2.03
2023-03-11T21:47:12.139Z,1.73
2023-03-11T21:49:39.121Z,1.88
2023-03-11T21:52:06.655Z,1.67
2023-03-11T21:54:33.469Z,1.52
2023-03-11T21:57:00.140Z,1.92
2023-03-11T21:59:26.871Z,1.98
2023-03-11T22:01:54.806Z,2.03
2023-03-11T22:04:21.544Z,1.42
2023-03-11T22:06:48.212Z,1.42
2023-03-11T22:09:16.451Z,1.77
2023-03-11T22:11:42.946Z,1.55
2023-03-11T22:14:09.802Z,1.50
2023-03-11T22:16:38.813Z,1.58
2023-03-11T22:19:08.942Z,1.40
2023-03-11T22:21:35.631Z,1.52
2023-03-11T22:24:02.482Z,1.50
2023-03-11T22:26:29.064Z,1.30
2023-03-11T22:28:56.406Z,1.35
2023-03-11T22:31:23.462Z,1.50
2023-03-11T22:33:50.325Z,1.60
2023-03-11T22:36:17.296Z,1.65
2023-03-11T22:38:45.491Z,1.38
2023-03-11T22:41:13.436Z,1.73
2023-03-11T22:43:40.521Z,1.40
2023-03-11T22:46:07.897Z,1.65
2023-03-11T22:48:35.551Z,1.30
2023-03-11T22:51:02.291Z,1.52
2023-03-11T22:53:29.042Z,1.42
2023-03-11T22:55:55.647Z,1.50
2023-03-11T22:58:23.476Z,1.60
2023-03-11T23:00:50.248Z,1.85
2023-03-11T23:03:16.985Z,1.35
2023-03-11T23:05:45.910Z,1.60
2023-03-11T23:08:15.386Z,1.30
2023-03-11T23:10:44.846Z,1.50
2023-03-11T23:13:12.746Z,1.20
2023-03-11T23:15:46.884Z,1.30
2023-03-11T23:18:14.698Z,1.60
2023-03-11T23:20:43.593Z,1.73
2023-03-11T23:23:15.467Z,1.58
2023-03-11T23:25:44.500Z,1.17
2023-03-11T23:28:11.318Z,1.65
2023-03-11T23:30:42.260Z,1.20
2023-03-11T23:33:08.871Z,1.40
2023-03-11T23:35:40.972Z,1.60
2023-03-11T23:38:07.836Z,1.40
2023-03-11T23:40:34.620Z,1.70
2023-03-11T23:43:02.534Z,1.10
2023-03-11T23:45:29.102Z,1.33
2023-03-11T23:47:55.617Z,1.35
2023-03-11T23:50:22.117Z,1.20
2023-03-11T23:52:49.096Z,1.50
2023-03-11T23:55:16.334Z,1.50
2023-03-11T23:57:43.874Z,1.23
